Time;durP1;ratioP1;P1;durP2;ratioP2;P2;SDS_P1;SDS_P2;PMS_P1;PMS_P2;Temp;Humidity;BMP_temperature;BMP_pressure;BME280_temperature;BME280_humidity;BME280_pressure;Samples;Min_cycle;Max_cycle;Signal;HPM_P1;HPM_P2
2021/12/14 00:01:25;;;;;;;38.37;19.30;;;8.10;99.90;;;;;;5202918;28;20442;-50
2021/12/14 00:04:00;;;;;;;32.33;17.53;;;8.10;99.90;;;;;;5201787;28;20537;-49
2021/12/14 00:06:31;;;;;;;30.67;17.50;;;8.10;99.90;;;;;;5197543;28;20438;-49
2021/12/14 00:09:04;;;;;;;30.33;18.60;;;8.10;99.90;;;;;;5203052;28;20450;-50
2021/12/14 00:17:14;;;;;;;37.90;20.03;;;8.10;99.90;;;;;;5209982;28;20457;-49
2021/12/14 00:19:46;;;;;;;32.83;17.03;;;8.10;99.90;;;;;;5200926;28;20515;-50
2021/12/14 00:24:06;;;;;;;33.23;18.60;;;8.10;99.90;;;;;;5205655;28;20464;-50
2021/12/14 00:25:10;;;;;;;21.37;15.30;;;8.10;99.90;;;;;;5206828;28;20480;-50
2021/12/14 00:27:41;;;;;;;28.13;16.60;;;8.10;99.90;;;;;;5200781;28;20446;-49
2021/12/14 00:30:12;;;;;;;21.77;13.43;;;8.10;99.90;;;;;;5207235;28;20208;-49
2021/12/14 00:32:43;;;;;;;24.50;16.67;;;8.10;99.90;;;;;;5214422;28;20235;-49
2021/12/14 00:35:15;;;;;;;30.77;15.90;;;8.10;99.90;;;;;;5205791;28;20531;-49
2021/12/14 00:37:50;;;;;;;30.67;17.73;;;8.10;99.90;;;;;;5200751;28;20431;-50
2021/12/14 00:40:29;;;;;;;26.97;16.87;;;8.10;99.90;;;;;;5201405;28;20524;-49
2021/12/14 00:43:00;;;;;;;25.53;17.07;;;8.10;99.90;;;;;;5188440;28;20806;-49
2021/12/14 00:45:34;;;;;;;26.10;17.07;;;8.10;99.90;;;;;;5202817;28;20442;-50
2021/12/14 00:48:06;;;;;;;29.60;17.33;;;8.10;99.90;;;;;;5197835;28;20431;-49
2021/12/14 00:50:39;;;;;;;27.03;15.63;;;8.10;99.90;;;;;;5202001;28;20557;-49
2021/12/14 00:53:10;;;;;;;29.40;17.13;;;8.10;99.90;;;;;;5201231;28;20437;-51
2021/12/14 00:55:43;;;;;;;32.53;17.53;;;8.10;99.90;;;;;;5201111;28;20510;-49
2021/12/14 00:58:15;;;;;;;28.40;17.90;;;8.00;99.90;;;;;;5202518;28;20971;-50
2021/12/14 01:00:57;;;;;;;24.40;15.93;;;8.10;99.90;;;;;;5198722;28;20525;-49
2021/12/14 01:03:30;;;;;;;24.27;14.90;;;8.10;99.90;;;;;;5197403;28;20544;-50
2021/12/14 01:06:03;;;;;;;23.93;15.63;;;8.10;99.90;;;;;;5192710;28;21088;-50
2021/12/14 01:08:38;;;;;;;22.60;15.90;;;8.10;99.90;;;;;;5195742;28;20476;-49
2021/12/14 01:11:20;;;;;;;20.93;15.17;;;8.10;99.90;;;;;;5198888;28;20458;-50
2021/12/14 01:14:02;;;;;;;28.10;16.20;;;8.10;99.90;;;;;;5196977;28;20450;-50
2021/12/14 01:16:51;;;;;;;21.80;15.20;;;8.10;99.90;;;;;;5197332;28;20494;-49
2021/12/14 01:19:27;;;;;;;24.07;14.00;;;8.10;99.90;;;;;;5197983;28;20462;-50
2021/12/14 01:22:18;;;;;;;26.63;17.37;;;8.10;99.90;;;;;;5199465;28;20500;-49
2021/12/14 01:27:46;;;;;;;24.83;16.47;;;8.10;99.90;;;;;;5197492;28;20560;-50
2021/12/14 01:30:37;;;;;;;21.80;14.27;;;8.20;99.90;;;;;;5202282;28;20489;-51
2021/12/14 01:33:12;;;;;;;25.80;15.67;;;8.20;99.90;;;;;;5200267;28;20437;-51
2021/12/14 01:35:46;;;;;;;28.20;15.37;;;8.20;99.90;;;;;;5206844;28;20415;-50
2021/12/14 01:38:33;;;;;;;22.10;14.97;;;8.10;99.90;;;;;;5196969;28;20463;-50
2021/12/14 01:41:08;;;;;;;20.20;14.60;;;8.20;99.90;;;;;;5203567;28;20438;-49
2021/12/14 01:43:55;;;;;;;22.10;15.33;;;8.10;99.90;;;;;;5200285;28;20434;-50
2021/12/14 01:46:30;;;;;;;28.13;15.00;;;8.20;99.90;;;;;;5203222;28;20482;-48
2021/12/14 01:49:06;;;;;;;20.40;15.07;;;8.10;99.90;;;;;;5197595;28;20560;-50
2021/12/14 01:51:40;;;;;;;15.47;12.73;;;8.20;99.90;;;;;;5201019;28;21119;-49
2021/12/14 01:54:14;;;;;;;17.27;12.57;;;8.10;99.90;;;;;;5196684;28;20525;-51
2021/12/14 01:56:45;;;;;;;18.87;12.97;;;8.10;99.90;;;;;;5210179;28;20926;-49
2021/12/14 01:59:23;;;;;;;19.63;12.40;;;8.10;99.90;;;;;;5195109;28;20533;-50
2021/12/14 02:02:07;;;;;;;19.70;12.20;;;8.20;99.90;;;;;;5195459;28;20219;-49
2021/12/14 02:04:43;;;;;;;17.30;11.73;;;8.10;99.90;;;;;;5202647;28;20445;-48
2021/12/14 02:07:17;;;;;;;17.47;11.67;;;8.20;99.90;;;;;;5199824;28;21011;-49
2021/12/14 02:09:57;;;;;;;19.53;11.27;;;8.20;99.90;;;;;;5200246;28;20824;-50
2021/12/14 02:12:31;;;;;;;15.20;10.40;;;8.20;99.90;;;;;;5199260;28;20474;-50
2021/12/14 02:15:16;;;;;;;16.00;10.70;;;8.20;99.90;;;;;;5197084;28;20466;-50
2021/12/14 02:17:49;;;;;;;15.57;10.47;;;8.20;99.90;;;;;;5193242;28;20435;-49
2021/12/14 02:20:27;;;;;;;14.57;10.90;;;8.20;99.90;;;;;;5197587;28;20849;-49
2021/12/14 02:22:59;;;;;;;14.30;10.97;;;8.20;99.90;;;;;;5200694;28;20434;-50
2021/12/14 02:25:30;;;;;;;10.60;9.50;;;8.20;99.90;;;;;;5198378;28;20489;-49
2021/12/14 02:28:04;;;;;;;18.07;9.63;;;8.20;99.90;;;;;;5192963;28;20496;-50
2021/12/14 02:30:38;;;;;;;15.43;10.90;;;8.20;99.90;;;;;;5201600;28;20243;-53
2021/12/14 02:33:29;;;;;;;17.33;9.93;;;8.20;99.90;;;;;;5195788;28;20435;-51
2021/12/14 02:36:03;;;;;;;14.03;9.47;;;8.20;99.90;;;;;;5197481;28;20485;-52
2021/12/14 02:38:40;;;;;;;14.90;9.00;;;8.20;99.90;;;;;;5205226;28;21084;-50
2021/12/14 02:41:11;;;;;;;15.63;9.20;;;8.20;99.90;;;;;;5205039;28;20449;-50
2021/12/14 02:43:47;;;;;;;16.17;10.63;;;8.20;99.90;;;;;;5197773;28;20449;-50
2021/12/14 02:46:28;;;;;;;10.63;8.87;;;8.20;99.90;;;;;;5200911;28;20455;-49
2021/12/14 02:49:03;;;;;;;14.23;9.60;;;8.20;99.90;;;;;;5194317;28;20462;-48
2021/12/14 02:51:41;;;;;;;11.77;8.90;;;8.20;99.90;;;;;;5202799;28;20465;-51
2021/12/14 02:54:18;;;;;;;13.83;10.70;;;8.20;99.90;;;;;;5204641;28;20429;-50
2021/12/14 02:56:57;;;;;;;11.90;8.20;;;8.20;99.90;;;;;;5217603;28;20445;-48
2021/12/14 02:59:32;;;;;;;14.37;10.00;;;8.20;99.90;;;;;;5200908;28;20458;-50
2021/12/14 03:02:08;;;;;;;15.90;9.43;;;8.20;99.90;;;;;;5194293;28;20512;-51
2021/12/14 03:04:42;;;;;;;13.50;9.30;;;8.20;99.90;;;;;;5207421;28;21217;-50
2021/12/14 03:07:14;;;;;;;12.93;9.37;;;8.10;99.90;;;;;;5187451;28;20430;-50
2021/12/14 03:12:51;;;;;;;12.53;8.70;;;8.10;99.90;;;;;;5207971;28;20470;-49
2021/12/14 03:15:32;;;;;;;15.27;10.50;;;8.20;99.90;;;;;;5216164;28;20438;-48
2021/12/14 03:18:09;;;;;;;15.63;9.00;;;8.10;99.90;;;;;;5200009;28;20438;-49
2021/12/14 03:20:50;;;;;;;14.10;9.40;;;8.20;99.90;;;;;;5208578;28;20449;-48
2021/12/14 03:23:27;;;;;;;16.20;10.40;;;8.10;99.90;;;;;;5209028;28;20453;-50
2021/12/14 03:26:01;;;;;;;11.70;9.10;;;8.10;99.90;;;;;;5209458;28;21011;-51
2021/12/14 03:28:32;;;;;;;13.07;9.10;;;8.10;99.90;;;;;;5198604;28;20425;-50
2021/12/14 03:31:11;;;;;;;8.97;7.83;;;8.10;99.90;;;;;;5199167;28;20473;-50
2021/12/14 03:33:47;;;;;;;15.03;9.00;;;8.10;99.90;;;;;;5196498;28;20913;-49
2021/12/14 03:36:25;;;;;;;10.77;7.80;;;8.10;99.90;;;;;;5203670;28;20424;-50
2021/12/14 03:39:06;;;;;;;14.50;9.70;;;8.10;99.90;;;;;;5199968;28;21028;-49
2021/12/14 03:41:48;;;;;;;13.47;10.27;;;8.10;99.90;;;;;;5203030;28;20451;-50
2021/12/14 03:44:30;;;;;;;14.63;9.40;;;8.10;99.90;;;;;;5218468;28;20431;-50
2021/12/14 03:47:08;;;;;;;16.97;9.83;;;8.10;99.90;;;;;;5200165;28;20449;-50
2021/12/14 03:49:44;;;;;;;12.63;8.63;;;8.10;99.90;;;;;;5209660;28;20576;-50
2021/12/14 03:52:19;;;;;;;11.20;8.87;;;8.10;99.90;;;;;;5213515;28;20470;-50
2021/12/14 03:54:50;;;;;;;18.60;10.07;;;8.10;99.90;;;;;;5200771;28;20442;-49
2021/12/14 03:57:21;;;;;;;17.17;10.37;;;8.10;99.90;;;;;;5203026;28;20430;-50
2021/12/14 03:59:52;;;;;;;11.87;9.90;;;8.10;99.90;;;;;;5198706;28;20782;-50
2021/12/14 04:02:23;;;;;;;17.53;10.23;;;8.20;99.90;;;;;;5182735;28;20443;-49
2021/12/14 04:05:04;;;;;;;14.87;10.20;;;8.20;99.90;;;;;;5211267;28;20468;-50
2021/12/14 04:07:37;;;;;;;17.43;11.17;;;8.20;99.90;;;;;;5195152;28;20214;-49
2021/12/14 04:10:21;;;;;;;12.10;9.13;;;8.10;99.90;;;;;;5205219;28;20450;-50
2021/12/14 04:12:53;;;;;;;19.20;11.20;;;8.10;99.90;;;;;;5194070;28;20543;-49
2021/12/14 04:15:24;;;;;;;14.83;10.20;;;8.10;99.90;;;;;;5203407;28;20438;-51
2021/12/14 04:17:55;;;;;;;18.20;9.90;;;8.10;99.90;;;;;;5198515;28;20446;-50
2021/12/14 04:20:36;;;;;;;14.87;9.87;;;8.10;99.90;;;;;;5207315;28;21031;-50
2021/12/14 04:23:22;;;;;;;13.93;8.97;;;8.10;99.90;;;;;;5199143;28;20825;-49
2021/12/14 04:25:55;;;;;;;13.57;10.73;;;8.10;99.90;;;;;;5200303;28;20442;-49
2021/12/14 04:28:31;;;;;;;15.77;11.20;;;8.10;99.90;;;;;;5195387;28;20995;-49
2021/12/14 04:31:01;;;;;;;15.10;10.30;;;8.10;99.90;;;;;;5207474;28;20473;-51
2021/12/14 04:33:36;;;;;;;17.30;10.77;;;8.10;99.90;;;;;;5202671;28;20445;-50
2021/12/14 04:36:10;;;;;;;14.80;9.53;;;8.00;99.90;;;;;;5208462;28;20270;-50
2021/12/14 04:38:51;;;;;;;15.20;10.70;;;8.10;99.90;;;;;;5206509;28;20863;-49
2021/12/14 04:53:11;;;;;;;11.40;8.80;;;8.00;99.90;;;;;;5197226;28;20466;-48
2021/12/14 04:55:44;;;;;;;16.90;10.30;;;8.00;99.90;;;;;;5166623;28;20446;-49
2021/12/14 04:58:14;;;;;;;21.73;10.60;;;8.00;99.90;;;;;;5202629;28;20806;-49
2021/12/14 05:00:48;;;;;;;18.80;10.50;;;8.00;99.90;;;;;;5203829;28;20525;-50
2021/12/14 05:03:30;;;;;;;15.30;11.00;;;8.00;99.90;;;;;;5196714;28;20553;-51
2021/12/14 05:06:17;;;;;;;19.37;10.70;;;8.00;99.90;;;;;;5204373;28;20946;-50
2021/12/14 05:09:27;;;;;;;28.77;17.40;;;8.00;99.90;;;;;;5200284;28;20457;-50
2021/12/14 05:12:11;;;;;;;23.43;12.30;;;8.10;99.90;;;;;;5194107;28;20983;-50
2021/12/14 05:14:44;;;;;;;25.47;12.03;;;8.10;99.90;;;;;;5184659;28;20449;-49
2021/12/14 05:17:21;;;;;;;19.30;10.97;;;8.00;99.90;;;;;;5198566;28;20434;-51
2021/12/14 05:19:54;;;;;;;14.57;11.13;;;8.10;99.90;;;;;;5189795;28;20458;-50
2021/12/14 05:22:31;;;;;;;14.00;9.63;;;8.10;99.90;;;;;;5196651;28;20881;-50
2021/12/14 05:25:10;;;;;;;12.07;9.00;;;8.00;99.90;;;;;;5182992;28;20504;-51
2021/12/14 05:28:02;;;;;;;18.60;10.43;;;8.00;99.90;;;;;;5213143;28;20449;-50
2021/12/14 05:30:40;;;;;;;15.37;9.77;;;8.00;99.90;;;;;;5198188;28;20450;-50
2021/12/14 05:33:24;;;;;;;17.23;10.97;;;8.00;99.90;;;;;;5198135;28;20469;-51
2021/12/14 05:36:00;;;;;;;18.00;10.53;;;8.00;99.90;;;;;;5188070;28;20453;-52
2021/12/14 05:38:52;;;;;;;14.17;9.97;;;7.90;99.90;;;;;;5192246;28;20453;-51
2021/12/14 05:44:46;;;;;;;16.60;10.00;;;8.00;99.90;;;;;;5157553;28;21051;-49
2021/12/14 05:47:18;;;;;;;16.03;9.40;;;8.00;99.90;;;;;;5190776;28;20537;-50
2021/12/14 05:49:49;;;;;;;15.97;10.40;;;8.00;99.90;;;;;;5199848;28;20476;-50
2021/12/14 05:52:24;;;;;;;17.27;10.43;;;7.90;99.90;;;;;;5205872;28;20458;-49
2021/12/14 05:54:56;;;;;;;15.50;10.60;;;7.90;99.90;;;;;;5190498;28;20203;-49
2021/12/14 05:57:27;;;;;;;15.70;10.03;;;7.90;99.90;;;;;;5205124;28;20438;-49
2021/12/14 05:59:58;;;;;;;18.90;11.20;;;7.90;99.90;;;;;;5195427;28;20926;-49
2021/12/14 06:02:28;;;;;;;14.30;9.47;;;8.00;99.90;;;;;;5200708;28;20187;-51
2021/12/14 06:04:59;;;;;;;16.83;9.63;;;8.00;99.90;;;;;;5197562;28;20599;-50
2021/12/14 06:07:30;;;;;;;15.30;10.03;;;8.00;99.90;;;;;;5196881;28;20196;-51
2021/12/14 06:10:00;;;;;;;12.80;8.83;;;7.90;99.90;;;;;;5199908;28;20200;-50
2021/12/14 06:12:34;;;;;;;12.23;9.10;;;8.00;99.90;;;;;;5208317;28;20542;-50
2021/12/14 06:15:10;;;;;;;13.67;9.50;;;7.90;99.90;;;;;;5195816;28;20230;-50
2021/12/14 06:17:42;;;;;;;26.00;9.37;;;7.90;99.90;;;;;;5200587;28;20492;-50
2021/12/14 06:20:21;;;;;;;15.40;9.73;;;8.00;99.90;;;;;;5193137;28;20449;-50
2021/12/14 06:22:53;;;;;;;16.17;9.33;;;7.90;99.90;;;;;;5204062;28;20444;-49
2021/12/14 06:25:27;;;;;;;18.37;8.20;;;7.90;99.90;;;;;;5200761;28;20484;-52
2021/12/14 06:28:01;;;;;;;14.27;9.50;;;8.00;99.90;;;;;;5202389;28;20446;-49
2021/12/14 06:30:34;;;;;;;15.00;9.80;;;7.90;99.90;;;;;;5187330;28;20466;-50
2021/12/14 06:33:10;;;;;;;15.13;9.60;;;7.90;99.90;;;;;;5195388;28;20481;-51
2021/12/14 06:35:48;;;;;;;16.47;8.93;;;7.90;99.90;;;;;;5199567;28;20453;-50
2021/12/14 06:38:29;;;;;;;15.60;9.07;;;7.90;99.90;;;;;;5208174;28;20461;-50
2021/12/14 06:41:08;;;;;;;14.00;9.33;;;7.90;99.90;;;;;;5201448;28;20526;-50
2021/12/14 06:43:55;;;;;;;12.20;9.00;;;7.90;99.90;;;;;;5209076;28;20433;-49
2021/12/14 06:46:33;;;;;;;12.73;9.70;;;7.90;99.90;;;;;;5199002;28;20437;-51
2021/12/14 06:49:13;;;;;;;14.07;8.33;;;7.90;99.90;;;;;;5177701;28;20463;-51
2021/12/14 06:51:52;;;;;;;18.13;9.67;;;7.90;99.90;;;;;;5194865;28;21460;-51
2021/12/14 06:54:28;;;;;;;12.17;8.57;;;7.80;99.90;;;;;;5202530;28;20521;-50
2021/12/14 06:57:02;;;;;;;15.43;8.73;;;7.90;99.90;;;;;;5206573;28;20444;-49
2021/12/14 06:59:33;;;;;;;13.77;9.20;;;7.90;99.90;;;;;;5210991;28;20482;-51
2021/12/14 07:02:08;;;;;;;14.50;9.33;;;7.90;99.90;;;;;;5213691;28;20479;-51
2021/12/14 07:04:47;;;;;;;13.97;8.07;;;7.90;99.90;;;;;;5211782;28;20440;-50
2021/12/14 07:07:22;;;;;;;16.67;9.07;;;7.90;99.90;;;;;;5209451;28;20429;-50
2021/12/14 07:10:00;;;;;;;19.63;10.33;;;7.90;99.90;;;;;;5217999;28;20794;-49
2021/12/14 07:12:34;;;;;;;12.27;7.90;;;7.90;99.90;;;;;;5202259;28;20476;-50
2021/12/14 07:15:22;;;;;;;17.00;9.30;;;7.90;99.90;;;;;;5207802;28;20545;-51
2021/12/14 07:18:03;;;;;;;18.47;9.17;;;7.90;99.90;;;;;;5208038;28;20487;-50
2021/12/14 07:20:39;;;;;;;14.57;9.43;;;7.90;99.90;;;;;;5207810;28;21023;-50
2021/12/14 07:23:25;;;;;;;14.00;9.20;;;7.90;99.90;;;;;;5206402;28;20905;-51
2021/12/14 07:26:05;;;;;;;14.80;9.73;;;7.90;99.90;;;;;;5207151;28;20433;-50
2021/12/14 07:28:41;;;;;;;13.07;9.43;;;7.90;99.90;;;;;;5207326;28;20461;-52
2021/12/14 07:31:16;;;;;;;15.33;9.33;;;7.90;99.90;;;;;;5201325;28;20474;-51
2021/12/14 07:33:51;;;;;;;13.17;9.00;;;7.90;99.90;;;;;;5205459;28;20536;-52
2021/12/14 07:36:28;;;;;;;19.50;9.63;;;7.90;99.90;;;;;;5197557;28;20434;-50
2021/12/14 07:39:05;;;;;;;14.57;8.80;;;7.90;99.90;;;;;;5204327;28;20469;-51
2021/12/14 07:41:45;;;;;;;12.10;8.50;;;7.90;99.90;;;;;;5210374;28;20473;-52
2021/12/14 07:44:34;;;;;;;14.57;10.17;;;7.90;99.90;;;;;;5206100;28;20437;-50
2021/12/14 07:47:14;;;;;;;13.03;9.17;;;8.00;99.90;;;;;;5205873;28;20515;-51
2021/12/14 07:49:46;;;;;;;13.73;8.77;;;8.00;99.90;;;;;;5216550;28;20520;-50
2021/12/14 07:52:21;;;;;;;9.53;7.50;;;8.00;99.90;;;;;;5201930;28;20520;-52
2021/12/14 07:54:51;;;;;;;12.23;10.13;;;8.00;99.90;;;;;;5201315;28;20515;-50
2021/12/14 07:57:26;;;;;;;13.43;7.87;;;8.00;99.90;;;;;;5205285;28;20860;-50
2021/12/14 08:00:17;;;;;;;12.13;8.73;;;8.00;99.90;;;;;;5200940;28;20213;-51
2021/12/14 08:02:51;;;;;;;15.77;10.20;;;8.00;99.90;;;;;;5204818;28;20438;-50
2021/12/14 08:05:27;;;;;;;15.63;9.73;;;8.00;99.90;;;;;;5198048;28;20437;-52
2021/12/14 08:08:20;;;;;;;14.50;9.23;;;8.00;99.90;;;;;;5200525;28;20525;-51
2021/12/14 08:13:51;;;;;;;14.20;8.53;;;8.10;99.90;;;;;;5172349;28;21336;-50
2021/12/14 08:16:22;;;;;;;19.87;8.47;;;8.00;99.90;;;;;;5196826;28;20470;-49
2021/12/14 08:18:53;;;;;;;14.70;9.10;;;8.10;99.90;;;;;;5197814;28;20489;-50
2021/12/14 08:21:26;;;;;;;13.93;8.73;;;8.10;99.90;;;;;;5198441;28;20192;-52
2021/12/14 08:24:06;;;;;;;13.67;10.00;;;8.10;99.90;;;;;;5193135;28;20447;-50
2021/12/14 08:26:41;;;;;;;22.40;8.90;;;8.10;99.90;;;;;;5198248;28;20439;-49
2021/12/14 08:29:17;;;;;;;53.80;11.90;;;8.20;99.90;;;;;;5202906;28;20450;-51
2021/12/14 08:32:15;;;;;;;40.67;9.97;;;8.10;99.90;;;;;;5193453;28;20944;-52
2021/12/14 08:34:48;;;;;;;14.90;9.20;;;8.10;99.90;;;;;;5195522;28;20489;-51
2021/12/14 08:37:20;;;;;;;12.90;8.73;;;8.10;99.90;;;;;;5196909;28;20449;-49
2021/12/14 08:39:58;;;;;;;16.47;9.23;;;8.10;99.90;;;;;;5213755;23;20505;-51
2021/12/14 08:42:51;;;;;;;14.90;8.70;;;8.10;99.90;;;;;;5197690;28;20480;-51
2021/12/14 08:45:26;;;;;;;11.90;8.27;;;8.10;99.90;;;;;;5200544;28;20418;-53
2021/12/14 08:48:02;;;;;;;20.87;10.20;;;8.10;99.90;;;;;;5195861;28;20442;-53
2021/12/14 08:50:42;;;;;;;13.30;9.37;;;8.10;99.90;;;;;;5194991;28;20817;-51
2021/12/14 08:53:13;;;;;;;14.63;8.10;;;8.10;99.90;;;;;;5196127;28;20473;-51
2021/12/14 08:55:47;;;;;;;13.83;8.70;;;8.10;99.90;;;;;;5197492;28;20441;-51
2021/12/14 08:58:19;;;;;;;18.33;10.30;;;8.10;99.90;;;;;;5198567;28;20438;-52
2021/12/14 09:00:56;;;;;;;12.87;9.53;;;8.10;99.90;;;;;;5200172;28;20458;-50
2021/12/14 09:03:33;;;;;;;11.77;8.80;;;8.10;99.90;;;;;;5196560;28;20541;-51
2021/12/14 09:06:10;;;;;;;11.27;9.10;;;8.10;99.90;;;;;;5196823;28;20438;-52
2021/12/14 09:08:44;;;;;;;16.83;9.67;;;8.10;99.90;;;;;;5204680;28;20438;-53
2021/12/14 09:11:19;;;;;;;17.20;10.30;;;8.20;99.90;;;;;;5197497;28;20466;-51
2021/12/14 09:13:50;;;;;;;11.07;9.03;;;8.20;99.90;;;;;;5192449;28;20491;-53
2021/12/14 09:16:28;;;;;;;18.67;11.30;;;8.30;99.90;;;;;;5195756;28;20429;-50
2021/12/14 09:19:12;;;;;;;17.33;9.93;;;8.20;99.90;;;;;;5196035;28;20458;-50
2021/12/14 09:21:46;;;;;;;11.53;9.17;;;8.30;99.90;;;;;;5192847;28;20449;-50
2021/12/14 09:24:20;;;;;;;10.53;8.40;;;8.30;99.90;;;;;;5196202;28;20512;-52
2021/12/14 09:27:04;;;;;;;12.33;9.47;;;8.30;99.90;;;;;;5195020;28;20438;-52
2021/12/14 09:29:35;;;;;;;15.13;9.13;;;8.40;99.90;;;;;;5199318;28;20488;-50
2021/12/14 09:32:10;;;;;;;12.50;9.50;;;8.50;99.90;;;;;;5190630;28;20470;-50
2021/12/14 09:34:41;;;;;;;12.40;8.60;;;8.60;99.90;;;;;;5195311;28;20528;-50
2021/12/14 09:37:14;;;;;;;13.23;8.93;;;8.50;99.90;;;;;;5192235;28;20439;-51
2021/12/14 09:39:48;;;;;;;15.20;9.37;;;8.60;99.90;;;;;;5194647;28;20471;-50
2021/12/14 09:42:23;;;;;;;9.83;7.93;;;8.50;99.90;;;;;;5201998;28;20422;-50
2021/12/14 09:44:59;;;;;;;10.20;8.67;;;8.50;99.90;;;;;;5200755;28;20554;-51
2021/12/14 09:47:31;;;;;;;16.47;9.93;;;8.50;99.90;;;;;;5200270;28;20446;-50
2021/12/14 09:50:16;;;;;;;12.40;8.30;;;8.50;99.90;;;;;;5195628;28;20548;-50
2021/12/14 09:52:48;;;;;;;20.17;8.40;;;8.50;99.90;;;;;;5196692;28;20836;-52
2021/12/14 09:55:22;;;;;;;12.23;9.80;;;8.50;99.90;;;;;;5196894;28;20808;-51
2021/12/14 09:57:58;;;;;;;16.73;11.00;;;8.50;99.90;;;;;;5194959;28;20808;-50
2021/12/14 10:00:48;;;;;;;12.93;8.73;;;8.50;99.90;;;;;;5192810;28;20459;-51
2021/12/14 10:03:19;;;;;;;14.03;9.90;;;8.50;99.90;;;;;;5193120;28;21096;-52
2021/12/14 10:05:55;;;;;;;11.10;8.80;;;8.50;99.90;;;;;;5195945;28;20488;-50
2021/12/14 10:08:33;;;;;;;11.50;8.60;;;8.50;99.90;;;;;;5195006;28;20186;-52
2021/12/14 10:11:09;;;;;;;16.43;10.37;;;8.50;99.90;;;;;;5203536;28;20556;-50
2021/12/14 10:13:44;;;;;;;15.77;9.00;;;8.50;99.90;;;;;;5195592;28;20437;-52
2021/12/14 10:16:15;;;;;;;21.70;11.40;;;8.50;99.90;;;;;;5201605;28;20795;-51
2021/12/14 10:18:50;;;;;;;12.93;9.40;;;8.40;99.90;;;;;;5201567;28;20441;-50
2021/12/14 10:21:56;;;;;;;14.17;8.70;;;8.50;99.90;;;;;;5199505;28;20187;-52
2021/12/14 10:24:27;;;;;;;13.57;9.60;;;8.60;99.90;;;;;;5175813;28;20817;-51
2021/12/14 10:27:06;;;;;;;14.87;10.77;;;8.60;99.90;;;;;;5200890;28;20802;-52
2021/12/14 10:29:37;;;;;;;15.60;10.13;;;8.60;99.90;;;;;;5188474;28;20982;-53
2021/12/14 10:32:12;;;;;;;18.83;10.93;;;8.70;99.90;;;;;;5193100;28;20478;-53
2021/12/14 10:34:49;;;;;;;15.10;9.70;;;8.70;99.90;;;;;;5198240;28;20195;-52
2021/12/14 10:37:35;;;;;;;14.77;9.93;;;8.80;99.90;;;;;;5192190;28;20449;-51
2021/12/14 10:43:16;;;;;;;13.93;9.70;;;8.90;99.90;;;;;;5153030;28;20449;-53
2021/12/14 10:45:58;;;;;;;14.13;9.80;;;8.90;99.90;;;;;;5196525;28;20438;-51
2021/12/14 10:48:37;;;;;;;12.73;10.10;;;8.90;99.90;;;;;;5197370;28;20443;-53
2021/12/14 10:51:10;;;;;;;22.73;9.57;;;9.00;99.90;;;;;;5195843;28;20926;-53
2021/12/14 10:53:43;;;;;;;16.80;10.50;;;9.00;99.90;;;;;;5195650;28;20533;-51
2021/12/14 10:56:18;;;;;;;13.40;10.23;;;9.10;99.90;;;;;;5203398;28;20446;-53
2021/12/14 10:58:53;;;;;;;17.67;9.80;;;9.20;99.90;;;;;;5196804;28;20477;-52
2021/12/14 11:01:31;;;;;;;18.03;11.00;;;9.30;99.90;;;;;;5197345;28;20438;-53
2021/12/14 11:04:11;;;;;;;17.93;11.40;;;9.40;99.90;;;;;;5195876;28;20469;-53
2021/12/14 11:06:45;;;;;;;19.80;11.03;;;9.40;99.90;;;;;;5200985;28;20445;-53
2021/12/14 11:12:24;;;;;;;16.07;11.50;;;9.40;99.90;;;;;;5199306;28;20527;-53
2021/12/14 11:15:08;;;;;;;13.63;10.33;;;9.50;99.90;;;;;;5201177;28;20442;-51
2021/12/14 11:20:40;;;;;;;21.90;10.67;;;9.40;99.90;;;;;;5196915;28;20488;-52
2021/12/14 11:23:19;;;;;;;14.80;9.97;;;9.40;99.90;;;;;;5196062;28;20457;-52
2021/12/14 11:25:53;;;;;;;12.90;9.57;;;9.40;99.90;;;;;;5205082;28;20495;-52
2021/12/14 11:28:49;;;;;;;13.80;9.83;;;9.40;99.90;;;;;;5204078;28;20461;-52
2021/12/14 11:31:41;;;;;;;14.60;9.60;;;9.40;99.90;;;;;;5207524;28;20556;-53
2021/12/14 11:34:30;;;;;;;18.73;10.80;;;9.40;99.90;;;;;;5204066;28;20429;-52
2021/12/14 11:37:07;;;;;;;24.80;10.53;;;9.40;99.90;;;;;;5207472;28;21005;-51
2021/12/14 11:39:43;;;;;;;13.80;9.97;;;9.40;99.90;;;;;;5207636;28;20469;-51
2021/12/14 11:42:23;;;;;;;16.27;9.93;;;9.60;99.90;;;;;;5202713;28;20503;-51
2021/12/14 11:45:04;;;;;;;26.77;11.17;;;9.60;99.90;;;;;;5219468;28;20481;-53
2021/12/14 11:47:46;;;;;;;22.70;11.50;;;9.60;99.90;;;;;;5200993;28;20445;-53
2021/12/14 11:50:39;;;;;;;10.97;9.07;;;9.60;99.90;;;;;;5200402;28;20468;-53
2021/12/14 11:53:14;;;;;;;17.33;8.43;;;9.70;99.90;;;;;;5202337;28;20470;-52
2021/12/14 11:55:59;;;;;;;11.40;8.60;;;9.70;99.90;;;;;;5204069;28;20440;-52
2021/12/14 11:58:44;;;;;;;16.50;10.20;;;9.70;99.90;;;;;;5196289;28;20529;-53
2021/12/14 12:01:25;;;;;;;14.83;8.90;;;9.60;99.90;;;;;;5195819;28;20488;-51
2021/12/14 12:04:07;;;;;;;28.93;11.40;;;9.70;99.90;;;;;;5199264;28;20445;-52
2021/12/14 12:09:35;;;;;;;20.60;10.50;;;9.80;99.90;;;;;;5193261;28;20476;-52
2021/12/14 12:12:06;;;;;;;20.83;11.57;;;9.80;99.90;;;;;;5188223;28;20557;-52
2021/12/14 12:14:49;;;;;;;16.00;11.27;;;9.80;99.90;;;;;;5194604;28;20450;-52
2021/12/14 12:17:34;;;;;;;15.37;10.10;;;9.80;99.90;;;;;;5195893;28;20183;-53
2021/12/14 12:20:09;;;;;;;23.37;10.20;;;9.80;99.90;;;;;;5203014;28;20450;-54
2021/12/14 12:22:51;;;;;;;21.60;11.93;;;9.80;99.90;;;;;;5198212;28;20850;-52
2021/12/14 12:25:26;;;;;;;21.37;12.10;;;9.90;99.90;;;;;;5201646;28;20434;-53
2021/12/14 12:28:07;;;;;;;33.90;15.73;;;9.80;99.90;;;;;;5200460;28;20500;-51
2021/12/14 12:31:07;;;;;;;45.57;22.90;;;9.70;99.90;;;;;;5200165;28;20454;-55
2021/12/14 12:33:47;;;;;;;15.70;11.57;;;9.60;99.90;;;;;;5190045;28;20443;-54
2021/12/14 12:36:25;;;;;;;18.47;11.27;;;9.70;99.90;;;;;;5199602;28;20427;-52
2021/12/14 12:39:06;;;;;;;15.07;10.63;;;9.70;99.90;;;;;;5200312;28;20476;-51
2021/12/14 12:41:48;;;;;;;16.27;10.33;;;9.50;99.90;;;;;;5194145;28;20749;-53
2021/12/14 12:44:22;;;;;;;12.93;9.93;;;9.60;99.90;;;;;;5197112;28;20446;-52
2021/12/14 12:46:57;;;;;;;13.10;9.37;;;9.50;99.90;;;;;;5202924;28;20484;-52
2021/12/14 12:49:34;;;;;;;11.37;9.30;;;9.50;99.90;;;;;;5217981;28;20864;-53
2021/12/14 12:52:15;;;;;;;13.73;10.17;;;9.50;99.90;;;;;;5199015;28;20733;-53
2021/12/14 12:54:51;;;;;;;20.60;11.70;;;9.60;99.90;;;;;;5202224;28;20418;-53
2021/12/14 12:57:32;;;;;;;18.30;11.10;;;9.50;99.90;;;;;;5192645;28;20855;-53
2021/12/14 13:00:10;;;;;;;17.80;10.30;;;9.40;99.90;;;;;;5193463;28;20459;-52
2021/12/14 13:02:44;;;;;;;16.63;9.80;;;9.50;99.90;;;;;;5201682;28;20803;-53
2021/12/14 13:05:15;;;;;;;19.73;11.77;;;9.60;99.90;;;;;;5190550;28;20438;-53
2021/12/14 13:07:56;;;;;;;12.07;8.93;;;9.60;99.90;;;;;;5197470;28;20454;-52
2021/12/14 13:10:36;;;;;;;18.10;12.30;;;9.60;99.90;;;;;;5198534;28;20191;-51
2021/12/14 13:13:15;;;;;;;22.80;12.70;;;9.50;99.90;;;;;;5202829;28;20500;-53
2021/12/14 13:15:48;;;;;;;17.53;10.93;;;9.40;99.90;;;;;;5198233;28;20648;-52
2021/12/14 13:18:36;;;;;;;16.93;11.07;;;9.40;99.90;;;;;;5193309;28;20434;-51
2021/12/14 13:21:28;;;;;;;15.23;10.67;;;9.30;99.90;;;;;;5200583;28;20430;-54
2021/12/14 13:24:10;;;;;;;17.73;10.83;;;9.30;99.90;;;;;;5200193;28;20511;-52
2021/12/14 13:26:54;;;;;;;16.90;12.30;;;9.10;99.90;;;;;;5195839;28;20530;-53
2021/12/14 13:29:36;;;;;;;14.77;11.73;;;9.10;99.90;;;;;;5193141;28;20788;-51
2021/12/14 13:32:09;;;;;;;18.20;12.90;;;9.00;99.90;;;;;;5198959;28;20465;-52
2021/12/14 13:34:43;;;;;;;21.20;13.60;;;9.00;99.90;;;;;;5184125;28;20439;-53
2021/12/14 13:37:33;;;;;;;21.20;14.90;;;9.00;99.90;;;;;;5203537;28;20434;-53
2021/12/14 13:40:09;;;;;;;19.80;13.40;;;8.90;99.90;;;;;;5199742;28;20458;-52
2021/12/14 13:42:46;;;;;;;21.03;13.40;;;8.80;99.90;;;;;;5199270;28;20520;-54
2021/12/14 13:45:23;;;;;;;21.40;13.93;;;8.70;99.90;;;;;;5194333;28;20474;-51
2021/12/14 13:47:55;;;;;;;21.77;13.00;;;8.60;99.90;;;;;;5196529;28;20926;-53
2021/12/14 13:50:30;;;;;;;21.27;13.77;;;8.50;99.90;;;;;;5198013;28;20461;-52
2021/12/14 13:53:01;;;;;;;20.80;12.70;;;8.30;99.90;;;;;;5198893;28;22836;-51
2021/12/14 13:55:40;;;;;;;26.20;13.90;;;8.30;99.90;;;;;;5191237;28;20536;-51
2021/12/14 13:58:22;;;;;;;29.63;18.07;;;8.20;99.90;;;;;;5199623;28;20186;-51
2021/12/14 14:01:04;;;;;;;25.47;16.20;;;8.20;99.90;;;;;;5196785;28;20457;-51
2021/12/14 14:03:39;;;;;;;24.93;17.30;;;8.10;99.90;;;;;;5199293;28;20426;-53
2021/12/14 14:06:13;;;;;;;26.27;16.13;;;8.10;99.90;;;;;;5198351;28;20441;-51
2021/12/14 14:08:48;;;;;;;23.70;14.67;;;8.10;99.90;;;;;;5193186;28;20453;-53
2021/12/14 14:11:25;;;;;;;22.50;14.23;;;8.10;99.90;;;;;;5196349;28;20455;-52
2021/12/14 14:14:18;;;;;;;20.37;12.23;;;8.10;99.90;;;;;;5190380;28;20434;-53